sensor_id;sensor_type;location;lat;lon;timestamp;noise_LAeq;noise_LA_min;noise_LA_max;noise_LA01;noise_LA95
72805;Laerm;60920;48.748;19.142;2023-11-21T00:01:34;30.30;28.95;31.75;;
72805;Laerm;60920;48.748;19.142;2023-11-21T00:04:00;30.30;28.97;31.38;;
72805;Laerm;60920;48.748;19.142;2023-11-21T00:06:26;30.33;29.01;31.66;;
72805;Laerm;60920;48.748;19.142;2023-11-21T00:08:51;30.37;29.15;31.58;;
72805;Laerm;60920;48.748;19.142;2023-11-21T00:11:17;30.40;28.96;31.57;;
72805;Laerm;60920;48.748;19.142;2023-11-21T00:13:42;30.41;29.03;31.70;;
72805;Laerm;60920;48.748;19.142;2023-11-21T00:16:08;30.47;29.32;31.69;;
72805;Laerm;60920;48.748;19.142;2023-11-21T00:18:34;30.45;29.03;31.73;;
72805;Laerm;60920;48.748;19.142;2023-11-21T00:20:59;30.45;29.23;31.79;;
72805;Laerm;60920;48.748;19.142;2023-11-21T00:23:24;30.44;29.04;31.57;;
72805;Laerm;60920;48.748;19.142;2023-11-21T00:25:50;30.45;29.13;31.59;;
72805;Laerm;60920;48.748;19.142;2023-11-21T00:28:15;30.42;29.11;31.63;;
72805;Laerm;60920;48.748;19.142;2023-11-21T00:30:41;30.43;29.16;31.58;;
72805;Laerm;60920;48.748;19.142;2023-11-21T00:33:06;30.46;29.28;31.66;;
72805;Laerm;60920;48.748;19.142;2023-11-21T00:35:32;30.47;29.22;31.54;;
72805;Laerm;60920;48.748;19.142;2023-11-21T00:37:57;30.45;28.74;31.62;;
72805;Laerm;60920;48.748;19.142;2023-11-21T00:40:23;30.40;29.12;31.56;;
72805;Laerm;60920;48.748;19.142;2023-11-21T00:42:49;30.37;28.81;31.50;;
72805;Laerm;60920;48.748;19.142;2023-11-21T00:45:15;30.33;29.10;31.61;;
72805;Laerm;60920;48.748;19.142;2023-11-21T00:47:40;30.29;28.66;31.53;;
72805;Laerm;60920;48.748;19.142;2023-11-21T00:50:05;30.31;28.89;31.45;;
72805;Laerm;60920;48.748;19.142;2023-11-21T00:52:32;30.38;29.02;31.57;;
72805;Laerm;60920;48.748;19.142;2023-11-21T00:54:57;30.45;29.25;31.76;;
72805;Laerm;60920;48.748;19.142;2023-11-21T00:57:24;30.41;29.23;31.57;;
72805;Laerm;60920;48.748;19.142;2023-11-21T00:59:49;30.39;29.13;31.67;;
72805;Laerm;60920;48.748;19.142;2023-11-21T01:02:15;30.39;29.16;31.54;;
72805;Laerm;60920;48.748;19.142;2023-11-21T01:04:40;30.40;28.96;31.78;;
72805;Laerm;60920;48.748;19.142;2023-11-21T01:07:05;30.41;29.03;31.56;;
72805;Laerm;60920;48.748;19.142;2023-11-21T01:09:31;30.40;28.89;31.63;;
72805;Laerm;60920;48.748;19.142;2023-11-21T01:11:56;30.40;29.15;31.63;;
72805;Laerm;60920;48.748;19.142;2023-11-21T01:14:22;30.40;29.16;31.47;;
72805;Laerm;60920;48.748;19.142;2023-11-21T01:16:47;30.39;29.10;31.68;;
72805;Laerm;60920;48.748;19.142;2023-11-21T01:19:13;30.38;29.00;31.50;;
72805;Laerm;60920;48.748;19.142;2023-11-21T01:21:39;30.34;29.05;31.59;;
72805;Laerm;60920;48.748;19.142;2023-11-21T01:24:04;30.30;29.08;31.49;;
72805;Laerm;60920;48.748;19.142;2023-11-21T01:26:32;30.28;28.81;31.41;;
72805;Laerm;60920;48.748;19.142;2023-11-21T01:28:57;30.27;28.85;31.60;;
72805;Laerm;60920;48.748;19.142;2023-11-21T01:31:22;30.22;28.93;31.48;;
72805;Laerm;60920;48.748;19.142;2023-11-21T01:33:48;30.17;28.69;31.39;;
72805;Laerm;60920;48.748;19.142;2023-11-21T01:36:13;30.14;28.80;32.17;;
72805;Laerm;60920;48.748;19.142;2023-11-21T01:38:39;30.09;28.56;31.31;;
72805;Laerm;60920;48.748;19.142;2023-11-21T01:41:04;30.08;28.77;31.23;;
72805;Laerm;60920;48.748;19.142;2023-11-21T01:43:31;30.01;28.56;31.38;;
72805;Laerm;60920;48.748;19.142;2023-11-21T01:45:57;29.98;28.51;31.28;;
72805;Laerm;60920;48.748;19.142;2023-11-21T01:48:23;29.96;28.71;31.15;;
72805;Laerm;60920;48.748;19.142;2023-11-21T01:50:48;29.95;28.59;31.11;;
72805;Laerm;60920;48.748;19.142;2023-11-21T01:53:14;29.97;28.63;31.14;;
72805;Laerm;60920;48.748;19.142;2023-11-21T01:55:40;29.99;28.75;31.14;;
72805;Laerm;60920;48.748;19.142;2023-11-21T01:58:05;30.02;28.76;31.18;;
72805;Laerm;60920;48.748;19.142;2023-11-21T02:00:32;30.09;28.50;31.35;;
72805;Laerm;60920;48.748;19.142;2023-11-21T02:02:58;30.16;28.81;31.30;;
72805;Laerm;60920;48.748;19.142;2023-11-21T02:05:24;30.25;28.98;31.44;;
72805;Laerm;60920;48.748;19.142;2023-11-21T02:07:51;30.32;29.03;31.54;;
72805;Laerm;60920;48.748;19.142;2023-11-21T02:10:17;30.32;28.89;31.41;;
72805;Laerm;60920;48.748;19.142;2023-11-21T02:12:47;30.33;28.98;31.47;;
72805;Laerm;60920;48.748;19.142;2023-11-21T02:15:13;30.33;28.81;31.49;;
72805;Laerm;60920;48.748;19.142;2023-11-21T02:17:45;30.35;28.90;31.58;;
72805;Laerm;60920;48.748;19.142;2023-11-21T02:20:12;30.37;29.17;31.47;;
72805;Laerm;60920;48.748;19.142;2023-11-21T02:22:41;30.32;28.93;31.58;;
72805;Laerm;60920;48.748;19.142;2023-11-21T02:25:07;30.33;29.08;31.49;;
72805;Laerm;60920;48.748;19.142;2023-11-21T02:27:33;30.33;28.96;31.51;;
72805;Laerm;60920;48.748;19.142;2023-11-21T02:29:58;30.33;29.00;31.50;;
72805;Laerm;60920;48.748;19.142;2023-11-21T02:32:24;30.31;28.97;31.50;;
72805;Laerm;60920;48.748;19.142;2023-11-21T02:34:51;30.32;29.11;31.46;;
72805;Laerm;60920;48.748;19.142;2023-11-21T02:37:16;30.30;29.07;31.54;;
72805;Laerm;60920;48.748;19.142;2023-11-21T02:39:41;30.32;28.97;31.63;;
72805;Laerm;60920;48.748;19.142;2023-11-21T02:42:07;30.33;29.07;31.63;;
72805;Laerm;60920;48.748;19.142;2023-11-21T02:44:32;30.31;29.10;31.49;;
72805;Laerm;60920;48.748;19.142;2023-11-21T02:46:58;30.32;28.92;31.42;;
72805;Laerm;60920;48.748;19.142;2023-11-21T02:49:23;30.32;28.98;31.64;;
72805;Laerm;60920;48.748;19.142;2023-11-21T02:51:48;30.29;28.39;31.38;;
72805;Laerm;60920;48.748;19.142;2023-11-21T02:54:14;30.26;28.86;31.27;;
72805;Laerm;60920;48.748;19.142;2023-11-21T02:56:39;30.18;28.91;31.30;;
72805;Laerm;60920;48.748;19.142;2023-11-21T02:59:05;30.15;28.64;31.25;;
72805;Laerm;60920;48.748;19.142;2023-11-21T03:01:30;30.14;28.84;31.28;;
72805;Laerm;60920;48.748;19.142;2023-11-21T03:03:56;30.18;28.87;31.41;;
72805;Laerm;60920;48.748;19.142;2023-11-21T03:06:21;30.23;29.06;31.30;;
72805;Laerm;60920;48.748;19.142;2023-11-21T03:08:47;30.25;28.97;31.42;;
72805;Laerm;60920;48.748;19.142;2023-11-21T03:11:12;30.23;28.98;31.45;;
72805;Laerm;60920;48.748;19.142;2023-11-21T03:13:38;30.22;28.94;31.22;;
72805;Laerm;60920;48.748;19.142;2023-11-21T03:16:04;30.25;28.96;31.51;;
72805;Laerm;60920;48.748;19.142;2023-11-21T03:18:29;30.26;28.95;31.44;;
72805;Laerm;60920;48.748;19.142;2023-11-21T03:20:55;30.25;29.07;31.61;;
72805;Laerm;60920;48.748;19.142;2023-11-21T03:23:20;30.23;28.98;31.40;;
72805;Laerm;60920;48.748;19.142;2023-11-21T03:25:45;30.20;29.03;31.35;;
72805;Laerm;60920;48.748;19.142;2023-11-21T03:28:11;30.18;28.80;31.28;;
72805;Laerm;60920;48.748;19.142;2023-11-21T03:30:36;30.12;28.82;31.56;;
72805;Laerm;60920;48.748;19.142;2023-11-21T03:33:01;30.07;28.94;31.39;;
72805;Laerm;60920;48.748;19.142;2023-11-21T03:35:26;30.03;28.69;31.24;;
72805;Laerm;60920;48.748;19.142;2023-11-21T03:37:53;29.98;28.68;31.32;;
72805;Laerm;60920;48.748;19.142;2023-11-21T03:40:18;29.91;28.04;31.15;;
72805;Laerm;60920;48.748;19.142;2023-11-21T03:42:43;30.04;28.60;36.15;;
72805;Laerm;60920;48.748;19.142;2023-11-21T03:45:09;30.06;28.72;38.06;;
72805;Laerm;60920;48.748;19.142;2023-11-21T03:47:34;29.89;28.57;31.02;;
72805;Laerm;60920;48.748;19.142;2023-11-21T03:49:59;29.86;28.69;30.99;;
72805;Laerm;60920;48.748;19.142;2023-11-21T03:52:25;29.88;28.71;31.26;;
72805;Laerm;60920;48.748;19.142;2023-11-21T03:54:52;29.90;28.46;31.15;;
72805;Laerm;60920;48.748;19.142;2023-11-21T03:57:17;29.94;28.46;31.21;;
72805;Laerm;60920;48.748;19.142;2023-11-21T03:59:42;30.01;28.70;31.21;;
72805;Laerm;60920;48.748;19.142;2023-11-21T04:02:08;30.01;28.91;31.36;;
72805;Laerm;60920;48.748;19.142;2023-11-21T04:04:34;29.99;28.62;31.25;;
72805;Laerm;60920;48.748;19.142;2023-11-21T04:06:59;29.98;28.71;31.14;;
72805;Laerm;60920;48.748;19.142;2023-11-21T04:09:25;29.99;28.58;31.12;;
72805;Laerm;60920;48.748;19.142;2023-11-21T04:11:51;30.02;28.69;31.06;;
72805;Laerm;60920;48.748;19.142;2023-11-21T04:14:16;30.09;28.78;31.25;;
72805;Laerm;60920;48.748;19.142;2023-11-21T04:16:42;30.14;28.74;31.37;;
72805;Laerm;60920;48.748;19.142;2023-11-21T04:19:07;30.14;28.82;31.56;;
72805;Laerm;60920;48.748;19.142;2023-11-21T04:21:35;30.13;28.53;31.37;;
72805;Laerm;60920;48.748;19.142;2023-11-21T04:24:01;30.13;28.81;31.48;;
72805;Laerm;60920;48.748;19.142;2023-11-21T04:26:26;30.14;28.94;31.31;;
72805;Laerm;60920;48.748;19.142;2023-11-21T04:28:51;30.13;28.73;31.46;;
72805;Laerm;60920;48.748;19.142;2023-11-21T04:31:16;30.12;28.91;31.40;;
72805;Laerm;60920;48.748;19.142;2023-11-21T04:33:42;30.15;28.79;31.19;;
72805;Laerm;60920;48.748;19.142;2023-11-21T04:36:07;30.18;28.73;31.38;;
72805;Laerm;60920;48.748;19.142;2023-11-21T04:38:32;30.18;28.92;31.37;;
72805;Laerm;60920;48.748;19.142;2023-11-21T04:40:58;30.12;28.90;31.21;;
72805;Laerm;60920;48.748;19.142;2023-11-21T04:43:23;30.11;28.79;31.65;;
72805;Laerm;60920;48.748;19.142;2023-11-21T04:45:48;30.10;28.88;31.37;;
72805;Laerm;60920;48.748;19.142;2023-11-21T04:48:14;30.10;28.85;31.19;;
72805;Laerm;60920;48.748;19.142;2023-11-21T04:50:39;30.11;28.88;31.36;;
72805;Laerm;60920;48.748;19.142;2023-11-21T04:53:05;30.11;28.80;31.52;;
72805;Laerm;60920;48.748;19.142;2023-11-21T04:55:30;30.08;28.50;31.27;;
72805;Laerm;60920;48.748;19.142;2023-11-21T04:57:55;30.08;28.60;31.22;;
72805;Laerm;60920;48.748;19.142;2023-11-21T05:00:21;30.07;28.78;31.48;;
72805;Laerm;60920;48.748;19.142;2023-11-21T05:02:46;30.07;28.50;31.39;;
72805;Laerm;60920;48.748;19.142;2023-11-21T05:05:11;30.07;28.76;31.25;;
72805;Laerm;60920;48.748;19.142;2023-11-21T05:07:37;30.09;28.87;31.37;;
72805;Laerm;60920;48.748;19.142;2023-11-21T05:10:04;30.09;28.82;31.25;;
72805;Laerm;60920;48.748;19.142;2023-11-21T05:12:32;30.11;28.76;31.32;;
72805;Laerm;60920;48.748;19.142;2023-11-21T05:15:02;30.09;28.89;31.21;;
72805;Laerm;60920;48.748;19.142;2023-11-21T05:17:28;30.09;28.75;31.27;;
72805;Laerm;60920;48.748;19.142;2023-11-21T05:19:54;30.11;28.87;31.39;;
72805;Laerm;60920;48.748;19.142;2023-11-21T05:22:19;30.07;28.68;31.21;;
72805;Laerm;60920;48.748;19.142;2023-11-21T05:24:45;30.01;28.48;31.31;;
72805;Laerm;60920;48.748;19.142;2023-11-21T05:27:10;30.00;28.67;31.22;;
72805;Laerm;60920;48.748;19.142;2023-11-21T05:29:35;30.00;28.80;31.36;;
72805;Laerm;60920;48.748;19.142;2023-11-21T05:32:02;30.03;28.67;31.29;;
72805;Laerm;60920;48.748;19.142;2023-11-21T05:34:28;30.04;28.62;31.21;;
72805;Laerm;60920;48.748;19.142;2023-11-21T05:36:53;30.02;28.72;31.19;;
72805;Laerm;60920;48.748;19.142;2023-11-21T05:39:18;30.00;28.72;31.16;;
72805;Laerm;60920;48.748;19.142;2023-11-21T05:41:44;30.05;28.86;31.23;;
72805;Laerm;60920;48.748;19.142;2023-11-21T05:44:10;30.04;28.93;31.18;;
72805;Laerm;60920;48.748;19.142;2023-11-21T05:46:37;30.03;28.55;31.19;;
72805;Laerm;60920;48.748;19.142;2023-11-21T05:49:02;30.02;28.70;31.17;;
72805;Laerm;60920;48.748;19.142;2023-11-21T05:51:28;29.96;28.63;31.14;;
72805;Laerm;60920;48.748;19.142;2023-11-21T05:53:53;29.95;28.75;31.05;;
72805;Laerm;60920;48.748;19.142;2023-11-21T05:56:18;29.95;28.54;31.13;;
72805;Laerm;60920;48.748;19.142;2023-11-21T05:58:43;29.97;28.51;31.16;;
72805;Laerm;60920;48.748;19.142;2023-11-21T06:01:09;29.97;28.42;31.33;;
72805;Laerm;60920;48.748;19.142;2023-11-21T06:03:37;29.98;28.59;31.54;;
72805;Laerm;60920;48.748;19.142;2023-11-21T06:06:03;29.96;28.68;31.20;;
72805;Laerm;60920;48.748;19.142;2023-11-21T06:08:29;29.97;28.70;31.08;;
72805;Laerm;60920;48.748;19.142;2023-11-21T06:10:54;29.95;28.66;31.22;;
72805;Laerm;60920;48.748;19.142;2023-11-21T06:13:20;29.95;28.76;31.26;;
72805;Laerm;60920;48.748;19.142;2023-11-21T06:15:49;29.96;28.77;31.26;;
72805;Laerm;60920;48.748;19.142;2023-11-21T06:18:15;29.96;28.64;31.07;;
72805;Laerm;60920;48.748;19.142;2023-11-21T06:20:41;29.94;28.60;31.27;;
72805;Laerm;60920;48.748;19.142;2023-11-21T06:23:06;29.99;28.62;31.23;;
72805;Laerm;60920;48.748;19.142;2023-11-21T06:25:31;29.98;28.62;31.05;;
72805;Laerm;60920;48.748;19.142;2023-11-21T06:28:01;29.97;28.42;31.07;;
72805;Laerm;60920;48.748;19.142;2023-11-21T06:30:26;29.96;28.67;31.16;;
72805;Laerm;60920;48.748;19.142;2023-11-21T06:32:52;29.90;28.52;31.11;;
72805;Laerm;60920;48.748;19.142;2023-11-21T06:35:17;29.88;28.64;31.48;;
72805;Laerm;60920;48.748;19.142;2023-11-21T06:37:43;29.84;28.48;31.47;;
72805;Laerm;60920;48.748;19.142;2023-11-21T06:40:14;29.86;28.37;31.10;;
72805;Laerm;60920;48.748;19.142;2023-11-21T06:42:40;29.85;28.57;31.07;;
72805;Laerm;60920;48.748;19.142;2023-11-21T06:45:06;29.85;28.61;30.98;;
72805;Laerm;60920;48.748;19.142;2023-11-21T06:47:31;29.85;28.46;30.93;;
72805;Laerm;60920;48.748;19.142;2023-11-21T06:49:57;29.97;28.66;36.63;;
72805;Laerm;60920;48.748;19.142;2023-11-21T06:52:22;29.92;28.77;31.14;;
72805;Laerm;60920;48.748;19.142;2023-11-21T06:54:48;29.99;28.73;31.33;;
72805;Laerm;60920;48.748;19.142;2023-11-21T06:57:16;30.00;28.52;31.13;;
72805;Laerm;60920;48.748;19.142;2023-11-21T06:59:42;30.01;28.68;31.33;;
72805;Laerm;60920;48.748;19.142;2023-11-21T07:02:08;29.99;28.72;31.24;;
72805;Laerm;60920;48.748;19.142;2023-11-21T07:04:34;29.96;28.59;30.99;;
72805;Laerm;60920;48.748;19.142;2023-11-21T07:06:59;29.97;28.75;31.32;;
72805;Laerm;60920;48.748;19.142;2023-11-21T07:09:25;29.95;28.60;31.17;;
72805;Laerm;60920;48.748;19.142;2023-11-21T07:11:54;29.94;28.50;31.06;;
72805;Laerm;60920;48.748;19.142;2023-11-21T07:14:20;29.97;28.68;31.17;;
72805;Laerm;60920;48.748;19.142;2023-11-21T07:16:45;29.96;28.50;31.19;;
72805;Laerm;60920;48.748;19.142;2023-11-21T07:19:11;29.95;28.77;31.00;;
72805;Laerm;60920;48.748;19.142;2023-11-21T07:21:37;29.98;28.72;31.45;;
72805;Laerm;60920;48.748;19.142;2023-11-21T07:24:03;29.97;28.67;31.11;;
72805;Laerm;60920;48.748;19.142;2023-11-21T07:26:29;29.95;28.72;31.20;;
72805;Laerm;60920;48.748;19.142;2023-11-21T07:28:54;29.95;28.51;31.08;;
72805;Laerm;60920;48.748;19.142;2023-11-21T07:31:20;29.88;28.59;31.23;;
72805;Laerm;60920;48.748;19.142;2023-11-21T07:33:46;30.70;28.74;48.67;;
72805;Laerm;60920;48.748;19.142;2023-11-21T07:36:12;29.84;28.56;30.99;;
72805;Laerm;60920;48.748;19.142;2023-11-21T07:38:37;29.81;28.33;31.16;;
72805;Laerm;60920;48.748;19.142;2023-11-21T07:41:03;29.76;28.43;31.02;;
72805;Laerm;60920;48.748;19.142;2023-11-21T07:43:28;29.68;28.32;30.97;;
72805;Laerm;60920;48.748;19.142;2023-11-21T07:46:00;29.64;28.45;30.76;;
72805;Laerm;60920;48.748;19.142;2023-11-21T07:48:25;29.56;28.18;30.74;;
72805;Laerm;60920;48.748;19.142;2023-11-21T07:50:50;29.53;28.22;30.71;;
72805;Laerm;60920;48.748;19.142;2023-11-21T07:53:15;29.52;28.15;30.83;;
72805;Laerm;60920;48.748;19.142;2023-11-21T07:55:41;29.48;28.13;30.85;;
72805;Laerm;60920;48.748;19.142;2023-11-21T07:58:07;29.51;28.24;30.68;;
72805;Laerm;60920;48.748;19.142;2023-11-21T08:00:32;29.53;27.94;30.66;;
72805;Laerm;60920;48.748;19.142;2023-11-21T08:02:58;29.46;28.08;31.58;;
72805;Laerm;60920;48.748;19.142;2023-11-21T08:05:23;29.45;27.97;30.71;;
72805;Laerm;60920;48.748;19.142;2023-11-21T08:07:49;29.42;28.32;30.58;;
72805;Laerm;60920;48.748;19.142;2023-11-21T08:10:15;29.42;28.15;30.81;;
72805;Laerm;60920;48.748;19.142;2023-11-21T08:12:42;29.40;28.18;30.77;;
72805;Laerm;60920;48.748;19.142;2023-11-21T08:15:08;29.41;28.13;30.56;;
72805;Laerm;60920;48.748;19.142;2023-11-21T08:17:34;29.42;28.04;30.72;;
72805;Laerm;60920;48.748;19.142;2023-11-21T08:20:00;29.42;28.08;30.74;;
72805;Laerm;60920;48.748;19.142;2023-11-21T08:22:25;29.46;27.98;30.70;;
72805;Laerm;60920;48.748;19.142;2023-11-21T08:24:51;29.58;28.30;45.31;;
72805;Laerm;60920;48.748;19.142;2023-11-21T08:27:16;29.86;28.36;31.73;;
72805;Laerm;60920;48.748;19.142;2023-11-21T08:29:43;29.86;28.42;31.23;;
72805;Laerm;60920;48.748;19.142;2023-11-21T08:32:08;29.92;28.37;31.80;;
72805;Laerm;60920;48.748;19.142;2023-11-21T08:34:34;29.91;28.31;31.83;;
72805;Laerm;60920;48.748;19.142;2023-11-21T08:36:59;29.96;28.41;32.47;;
72805;Laerm;60920;48.748;19.142;2023-11-21T08:39:25;30.17;28.67;32.44;;
72805;Laerm;60920;48.748;19.142;2023-11-21T08:41:51;30.14;28.56;32.30;;
72805;Laerm;60920;48.748;19.142;2023-11-21T08:44:17;30.18;28.29;54.95;;
72805;Laerm;60920;48.748;19.142;2023-11-21T08:46:43;29.94;28.61;31.37;;
72805;Laerm;60920;48.748;19.142;2023-11-21T08:49:10;30.36;28.87;32.22;;
72805;Laerm;60920;48.748;19.142;2023-11-21T08:51:36;30.77;29.36;32.13;;
72805;Laerm;60920;48.748;19.142;2023-11-21T08:54:02;30.49;28.89;37.87;;
72805;Laerm;60920;48.748;19.142;2023-11-21T08:56:29;30.54;29.04;31.84;;
72805;Laerm;60920;48.748;19.142;2023-11-21T08:58:55;31.06;29.55;32.33;;
72805;Laerm;60920;48.748;19.142;2023-11-21T09:01:21;31.39;29.99;32.69;;
72805;Laerm;60920;48.748;19.142;2023-11-21T09:03:46;31.51;30.18;32.85;;
72805;Laerm;60920;48.748;19.142;2023-11-21T09:06:13;31.37;29.92;32.71;;
72805;Laerm;60920;48.748;19.142;2023-11-21T09:08:39;31.11;29.86;32.34;;
72805;Laerm;60920;48.748;19.142;2023-11-21T09:11:04;31.04;29.31;33.42;;
72805;Laerm;60920;48.748;19.142;2023-11-21T09:13:30;30.82;29.46;32.86;;
72805;Laerm;60920;48.748;19.142;2023-11-21T09:15:56;30.68;29.36;31.99;;
72805;Laerm;60920;48.748;19.142;2023-11-21T09:18:21;30.79;29.35;32.10;;
72805;Laerm;60920;48.748;19.142;2023-11-21T09:20:46;30.67;29.28;31.97;;
72805;Laerm;60920;48.748;19.142;2023-11-21T09:23:12;30.57;29.14;31.93;;
72805;Laerm;60920;48.748;19.142;2023-11-21T09:25:37;30.44;28.99;31.91;;
72805;Laerm;60920;48.748;19.142;2023-11-21T09:28:06;30.58;29.22;31.88;;
72805;Laerm;60920;48.748;19.142;2023-11-21T09:30:33;30.45;29.11;31.93;;
72805;Laerm;60920;48.748;19.142;2023-11-21T09:32:59;30.51;29.03;32.09;;
72805;Laerm;60920;48.748;19.142;2023-11-21T09:35:24;30.59;29.27;32.03;;
72805;Laerm;60920;48.748;19.142;2023-11-21T09:37:49;30.70;29.29;32.57;;
72805;Laerm;60920;48.748;19.142;2023-11-21T09:40:17;30.74;29.20;32.35;;
72805;Laerm;60920;48.748;19.142;2023-11-21T09:42:56;30.93;29.52;32.79;;
72805;Laerm;60920;48.748;19.142;2023-11-21T09:45:25;30.96;29.46;32.45;;
72805;Laerm;60920;48.748;19.142;2023-11-21T09:47:55;31.07;29.37;33.26;;
72805;Laerm;60920;48.748;19.142;2023-11-21T09:50:23;31.19;29.63;35.40;;
72805;Laerm;60920;48.748;19.142;2023-11-21T09:55:35;31.36;29.93;32.76;;
72805;Laerm;60920;48.748;19.142;2023-11-21T09:58:02;31.53;30.04;32.83;;
72805;Laerm;60920;48.748;19.142;2023-11-21T10:00:28;31.42;30.08;33.62;;
72805;Laerm;60920;48.748;19.142;2023-11-21T10:02:56;31.36;30.19;33.01;;
72805;Laerm;60920;48.748;19.142;2023-11-21T10:05:23;31.27;29.77;32.54;;
72805;Laerm;60920;48.748;19.142;2023-11-21T10:07:49;31.27;30.09;33.81;;
72805;Laerm;60920;48.748;19.142;2023-11-21T10:10:16;31.23;29.97;32.77;;
72805;Laerm;60920;48.748;19.142;2023-11-21T10:12:42;31.10;29.68;32.20;;
72805;Laerm;60920;48.748;19.142;2023-11-21T10:15:09;31.05;29.78;32.66;;
72805;Laerm;60920;48.748;19.142;2023-11-21T10:17:36;30.89;29.42;32.34;;
72805;Laerm;60920;48.748;19.142;2023-11-21T10:20:04;30.65;29.17;32.20;;
72805;Laerm;60920;48.748;19.142;2023-11-21T10:22:36;30.59;29.23;31.89;;
72805;Laerm;60920;48.748;19.142;2023-11-21T10:25:02;30.45;28.98;31.76;;
72805;Laerm;60920;48.748;19.142;2023-11-21T10:27:27;30.38;29.17;31.74;;
72805;Laerm;60920;48.748;19.142;2023-11-21T10:29:53;30.45;29.19;31.71;;
72805;Laerm;60920;48.748;19.142;2023-11-21T10:32:18;30.46;28.97;31.72;;
72805;Laerm;60920;48.748;19.142;2023-11-21T10:34:55;30.57;29.02;31.70;;
72805;Laerm;60920;48.748;19.142;2023-11-21T10:37:20;30.46;29.29;31.76;;
72805;Laerm;60920;48.748;19.142;2023-11-21T10:39:45;30.60;29.35;32.99;;
72805;Laerm;60920;48.748;19.142;2023-11-21T10:42:11;30.48;29.25;31.92;;
72805;Laerm;60920;48.748;19.142;2023-11-21T10:44:36;30.52;29.22;31.79;;
72805;Laerm;60920;48.748;19.142;2023-11-21T10:47:02;30.42;29.08;31.72;;
72805;Laerm;60920;48.748;19.142;2023-11-21T10:49:29;30.42;29.11;31.58;;
72805;Laerm;60920;48.748;19.142;2023-11-21T10:51:54;30.39;28.85;31.77;;
72805;Laerm;60920;48.748;19.142;2023-11-21T10:54:21;30.32;29.23;31.63;;
72805;Laerm;60920;48.748;19.142;2023-11-21T10:56:47;30.45;29.13;31.56;;
72805;Laerm;60920;48.748;19.142;2023-11-21T10:59:16;30.61;29.28;32.00;;
72805;Laerm;60920;48.748;19.142;2023-11-21T11:01:42;30.63;29.29;32.05;;
72805;Laerm;60920;48.748;19.142;2023-11-21T11:04:08;30.87;29.51;32.10;;
72805;Laerm;60920;48.748;19.142;2023-11-21T11:06:39;31.11;29.78;32.53;;
72805;Laerm;60920;48.748;19.142;2023-11-21T11:09:05;31.01;29.70;32.23;;
72805;Laerm;60920;48.748;19.142;2023-11-21T11:11:33;31.20;29.93;32.45;;
72805;Laerm;60920;48.748;19.142;2023-11-21T11:13:59;31.05;29.47;32.60;;
72805;Laerm;60920;48.748;19.142;2023-11-21T11:16:25;31.22;29.83;32.42;;
72805;Laerm;60920;48.748;19.142;2023-11-21T11:18:51;31.38;30.09;32.63;;
72805;Laerm;60920;48.748;19.142;2023-11-21T11:21:26;31.51;29.98;32.72;;
72805;Laerm;60920;48.748;19.142;2023-11-21T11:34:35;31.32;29.95;32.82;;
72805;Laerm;60920;48.748;19.142;2023-11-21T11:37:03;31.39;29.83;32.70;;
72805;Laerm;60920;48.748;19.142;2023-11-21T11:41:55;31.39;29.92;32.65;;
72805;Laerm;60920;48.748;19.142;2023-11-21T11:47:14;31.17;29.69;32.75;;
72805;Laerm;60920;48.748;19.142;2023-11-21T11:49:54;31.04;29.70;32.55;;
72805;Laerm;60920;48.748;19.142;2023-11-21T11:52:39;30.90;29.56;32.93;;
72805;Laerm;60920;48.748;19.142;2023-11-21T11:55:05;30.76;29.31;32.29;;
72805;Laerm;60920;48.748;19.142;2023-11-21T11:57:31;30.83;29.27;32.70;;
72805;Laerm;60920;48.748;19.142;2023-11-21T12:02:41;30.79;29.44;32.14;;
72805;Laerm;60920;48.748;19.142;2023-11-21T12:05:08;30.68;29.41;31.82;;
72805;Laerm;60920;48.748;19.142;2023-11-21T12:07:44;30.58;29.28;32.12;;
72805;Laerm;60920;48.748;19.142;2023-11-21T12:10:12;30.69;29.22;33.04;;
72805;Laerm;60920;48.748;19.142;2023-11-21T12:12:37;30.51;28.91;33.74;;
72805;Laerm;60920;48.748;19.142;2023-11-21T12:15:04;30.43;28.99;31.91;;
72805;Laerm;60920;48.748;19.142;2023-11-21T12:17:30;30.56;28.96;32.95;;
72805;Laerm;60920;48.748;19.142;2023-11-21T12:20:01;30.37;28.73;31.75;;
72805;Laerm;60920;48.748;19.142;2023-11-21T12:22:28;30.20;28.80;31.51;;
72805;Laerm;60920;48.748;19.142;2023-11-21T12:24:53;30.38;28.87;32.19;;
72805;Laerm;60920;48.748;19.142;2023-11-21T12:27:20;30.20;28.78;31.67;;
72805;Laerm;60920;48.748;19.142;2023-11-21T12:29:45;30.10;28.78;31.43;;
72805;Laerm;60920;48.748;19.142;2023-11-21T12:32:11;30.18;28.65;31.70;;
72805;Laerm;60920;48.748;19.142;2023-11-21T12:34:36;30.29;28.87;31.94;;
72805;Laerm;60920;48.748;19.142;2023-11-21T12:37:03;30.17;28.49;32.74;;
72805;Laerm;60920;48.748;19.142;2023-11-21T12:39:29;30.19;28.65;32.65;;
72805;Laerm;60920;48.748;19.142;2023-11-21T12:41:55;30.20;28.91;33.09;;
72805;Laerm;60920;48.748;19.142;2023-11-21T12:44:21;30.00;28.67;31.55;;
72805;Laerm;60920;48.748;19.142;2023-11-21T12:46:48;29.97;28.70;32.50;;
72805;Laerm;60920;48.748;19.142;2023-11-21T12:49:14;30.07;28.60;32.45;;
72805;Laerm;60920;48.748;19.142;2023-11-21T12:51:43;29.93;28.48;37.26;;
72805;Laerm;60920;48.748;19.142;2023-11-21T12:54:09;29.89;28.34;34.12;;
72805;Laerm;60920;48.748;19.142;2023-11-21T12:56:38;29.88;28.46;31.74;;
72805;Laerm;60920;48.748;19.142;2023-11-21T12:59:03;29.86;28.33;34.28;;
72805;Laerm;60920;48.748;19.142;2023-11-21T13:01:30;29.94;28.52;34.37;;
72805;Laerm;60920;48.748;19.142;2023-11-21T13:03:59;29.73;28.39;31.15;;
72805;Laerm;60920;48.748;19.142;2023-11-21T13:06:25;29.88;28.63;32.83;;
72805;Laerm;60920;48.748;19.142;2023-11-21T13:08:51;29.83;27.96;32.06;;
72805;Laerm;60920;48.748;19.142;2023-11-21T13:11:17;29.76;28.18;31.46;;
72805;Laerm;60920;48.748;19.142;2023-11-21T13:13:42;29.69;28.35;31.35;;
72805;Laerm;60920;48.748;19.142;2023-11-21T13:16:11;29.80;28.48;31.54;;
72805;Laerm;60920;48.748;19.142;2023-11-21T13:18:36;29.86;28.20;31.42;;
72805;Laerm;60920;48.748;19.142;2023-11-21T13:21:04;29.78;28.15;31.95;;
72805;Laerm;60920;48.748;19.142;2023-11-21T13:23:35;29.80;28.38;31.51;;
72805;Laerm;60920;48.748;19.142;2023-11-21T13:26:02;29.73;28.20;31.80;;
72805;Laerm;60920;48.748;19.142;2023-11-21T13:28:29;29.60;28.06;31.26;;
72805;Laerm;60920;48.748;19.142;2023-11-21T13:30:57;29.75;28.43;31.80;;
72805;Laerm;60920;48.748;19.142;2023-11-21T13:33:27;29.72;28.21;31.95;;
72805;Laerm;60920;48.748;19.142;2023-11-21T13:35:53;29.81;28.34;35.11;;
72805;Laerm;60920;48.748;19.142;2023-11-21T13:38:21;29.82;28.34;31.14;;
72805;Laerm;60920;48.748;19.142;2023-11-21T13:40:48;29.83;28.31;31.89;;
72805;Laerm;60920;48.748;19.142;2023-11-21T13:43:18;29.87;28.56;31.49;;
72805;Laerm;60920;48.748;19.142;2023-11-21T13:45:46;29.89;28.66;31.63;;
72805;Laerm;60920;48.748;19.142;2023-11-21T13:48:12;29.94;28.49;31.37;;